createdAt,value
2016-05-31T00:00:00.359Z,89.1
2016-05-31T00:00:10.187Z,88.7
2016-05-31T00:00:20.172Z,88.7
2016-05-31T00:00:30.312Z,88.7
2016-05-31T00:00:40.297Z,89.1
2016-05-31T00:00:50.283Z,89
2016-05-31T00:01:00.283Z,89.2
2016-05-31T00:01:10.111Z,88.4
2016-05-31T00:01:20.111Z,88.8
2016-05-31T00:01:30.252Z,88.9
2016-05-31T00:01:40.236Z,88.8
2016-05-31T00:01:50.239Z,88.7
2016-05-31T00:02:00.224Z,88.6
2016-05-31T00:02:10.208Z,88.8
2016-05-31T00:02:20.192Z,88.6
2016-05-31T00:02:30.192Z,88.8
2016-05-31T00:02:40.177Z,88.7
2016-05-31T00:02:50.180Z,89.1
2016-05-31T00:03:00.164Z,88.8
2016-05-31T00:03:10.164Z,88.6
2016-05-31T00:03:20.133Z,88.9
2016-05-31T00:03:30.117Z,88.6
2016-05-31T00:03:40.117Z,89
2016-05-31T00:03:50.104Z,89.1
2016-05-31T00:03:59.791Z,89.1
2016-05-31T00:04:10.104Z,89.4
2016-05-31T00:04:19.916Z,89.3
2016-05-31T00:04:30.057Z,89.1
2016-05-31T00:04:40.057Z,89.5
2016-05-31T00:04:50.044Z,88.9
2016-05-31T00:05:00.028Z,88.9
2016-05-31T00:05:10.013Z,88.8
2016-05-31T00:05:20.013Z,89.1
2016-05-31T00:05:29.841Z,89.1
2016-05-31T00:05:39.825Z,88.9
2016-05-31T00:05:49.969Z,89
2016-05-31T00:05:59.969Z,88.8
2016-05-31T00:06:09.797Z,89.1
2016-05-31T00:06:19.797Z,88.9
2016-05-31T00:06:29.938Z,89
2016-05-31T00:06:39.922Z,89.1
2016-05-31T00:06:49.924Z,89.3
2016-05-31T00:06:59.893Z,89.4
2016-05-31T00:07:09.737Z,89.7
2016-05-31T00:07:19.737Z,89.2
2016-05-31T00:07:29.721Z,89.4
2016-05-31T00:07:40.252Z,89.5
2016-05-31T00:07:49.693Z,89.6
2016-05-31T00:07:59.833Z,89.5
2016-05-31T00:08:10.943Z,89.5
2016-05-31T00:08:19.521Z,89.2
2016-05-31T00:08:29.490Z,89.1
2016-05-31T00:08:39.802Z,88.9
2016-05-31T00:08:49.789Z,89.1
2016-05-31T00:08:59.774Z,88.8
2016-05-31T00:09:09.758Z,88.7
2016-05-31T00:09:19.743Z,89.2
2016-05-31T00:09:29.743Z,88.9
2016-05-31T00:09:39.602Z,88.5
2016-05-31T00:09:49.730Z,88.6
2016-05-31T00:09:59.714Z,88.6
2016-05-31T00:10:09.714Z,88.4
2016-05-31T00:10:19.683Z,88.5
2016-05-31T00:10:29.527Z,88.8
2016-05-31T00:10:39.699Z,88.3
2016-05-31T00:10:49.669Z,89
2016-05-31T00:10:59.654Z,88.8
2016-05-31T00:11:09.638Z,89.1
2016-05-31T00:11:19.638Z,88.9
2016-05-31T00:11:29.466Z,88.8
2016-05-31T00:11:39.607Z,88.7
2016-05-31T00:11:49.594Z,88.7
2016-05-31T00:11:59.594Z,89
2016-05-31T00:12:09.563Z,88.4
2016-05-31T00:12:19.563Z,88.7
2016-05-31T00:12:29.579Z,88.8
2016-05-31T00:12:39.547Z,88.6
2016-05-31T00:12:49.549Z,88.7
2016-05-31T00:12:59.534Z,88.7
2016-05-31T00:13:09.503Z,88.9
2016-05-31T00:13:19.503Z,89.3
2016-05-31T00:13:29.331Z,89.1
2016-05-31T00:13:39.471Z,88.9
2016-05-31T00:13:49.474Z,89.1
2016-05-31T00:13:59.443Z,89.1
2016-05-31T00:14:09.443Z,89.1
2016-05-31T00:14:19.287Z,89.1
2016-05-31T00:14:29.412Z,88.8
2016-05-31T00:14:39.099Z,89
2016-05-31T00:14:49.399Z,89.1
2016-05-31T00:14:59.384Z,89.1
2016-05-31T00:15:09.384Z,89.2
2016-05-31T00:15:19.368Z,89.3
2016-05-31T00:15:29.352Z,89
2016-05-31T00:15:39.352Z,88.7
2016-05-31T00:15:49.324Z,88.4
2016-05-31T00:15:59.324Z,89
2016-05-31T00:16:09.308Z,89
2016-05-31T00:16:19.308Z,88.6
2016-05-31T00:16:29.293Z,88.5
2016-05-31T00:16:39.137Z,88.5
2016-05-31T00:16:49.123Z,88.9
2016-05-31T00:16:59.279Z,89.1
2016-05-31T00:17:09.279Z,88.9
2016-05-31T00:17:19.248Z,89
2016-05-31T00:17:29.232Z,88.7
2016-05-31T00:17:39.232Z,88.7
2016-05-31T00:17:49.062Z,88.7
2016-05-31T00:17:59.203Z,89.1
2016-05-31T00:18:09.047Z,89
2016-05-31T00:18:19.172Z,89.1
2016-05-31T00:18:29.187Z,89.1
2016-05-31T00:18:39.156Z,88.3
2016-05-31T00:18:49.145Z,89.1
2016-05-31T00:18:59.129Z,88.8
2016-05-31T00:19:08.957Z,89
2016-05-31T00:19:18.957Z,88.9
2016-05-31T00:19:29.113Z,88.9
2016-05-31T00:19:39.098Z,88.9
2016-05-31T00:19:48.929Z,88.8
2016-05-31T00:19:58.913Z,88.8
2016-05-31T00:20:09.054Z,89
2016-05-31T00:20:19.054Z,88.9
2016-05-31T00:20:29.038Z,88.5
2016-05-31T00:20:38.866Z,89.1
2016-05-31T00:20:49.025Z,88.7
2016-05-31T00:20:59.009Z,88.9
2016-05-31T00:21:08.837Z,88.4
2016-05-31T00:21:18.978Z,88.4
2016-05-31T00:21:28.978Z,88.5
2016-05-31T00:21:38.806Z,88.8
2016-05-31T00:21:48.948Z,88.7
2016-05-31T00:21:58.792Z,89
2016-05-31T00:22:08.948Z,88.8
2016-05-31T00:22:18.964Z,88.7
2016-05-31T00:22:28.777Z,89
2016-05-31T00:22:39.230Z,88.5
2016-05-31T00:22:48.748Z,88.9
2016-05-31T00:22:58.748Z,88.5
2016-05-31T00:23:09.248Z,89
2016-05-31T00:23:18.967Z,88.4
2016-05-31T00:23:30.358Z,88.4
2016-05-31T00:23:38.826Z,88.8
2016-05-31T00:23:48.672Z,88.9
2016-05-31T00:23:58.813Z,88.9
2016-05-31T00:24:08.797Z,89.1
2016-05-31T00:24:18.641Z,89.4
2016-05-31T00:24:28.782Z,88.8
2016-05-31T00:24:38.766Z,89.1
2016-05-31T00:24:48.614Z,89.1
2016-05-31T00:24:58.754Z,89.1
2016-05-31T00:25:08.739Z,89.1
2016-05-31T00:25:18.723Z,89.1
2016-05-31T00:25:28.723Z,88.8
2016-05-31T00:25:38.707Z,89
2016-05-31T00:25:48.709Z,88.8
2016-05-31T00:25:58.538Z,88.8
2016-05-31T00:26:08.678Z,88.6
2016-05-31T00:26:18.663Z,88.5
2016-05-31T00:26:28.506Z,88.3
2016-05-31T00:26:38.631Z,88.6
2016-05-31T00:26:48.634Z,88.7
2016-05-31T00:26:58.634Z,89.2
2016-05-31T00:27:08.619Z,88.6
2016-05-31T00:27:18.447Z,89.2
2016-05-31T00:27:28.587Z,89.1
2016-05-31T00:27:38.572Z,88.9
2016-05-31T00:27:48.558Z,88.7
2016-05-31T00:27:58.558Z,88.7
2016-05-31T00:28:08.543Z,88.9
2016-05-31T00:28:18.386Z,89.1
2016-05-31T00:28:28.371Z,89.1
2016-05-31T00:28:38.511Z,89
2016-05-31T00:28:48.500Z,89.6
2016-05-31T00:28:58.484Z,89.4
2016-05-31T00:29:08.500Z,89
2016-05-31T00:29:18.468Z,88.9
2016-05-31T00:29:28.453Z,89
2016-05-31T00:29:38.453Z,88.9
2016-05-31T00:29:48.439Z,89
2016-05-31T00:29:58.424Z,89
2016-05-31T00:30:08.424Z,89.2
2016-05-31T00:30:18.408Z,89.4
2016-05-31T00:30:28.392Z,89.3
2016-05-31T00:30:38.392Z,89.1
2016-05-31T00:30:48.223Z,89
2016-05-31T00:30:58.364Z,88.8
2016-05-31T00:31:08.208Z,89
2016-05-31T00:31:18.348Z,89.1
2016-05-31T00:31:28.348Z,88.9
2016-05-31T00:31:38.317Z,89
2016-05-31T00:31:48.319Z,89.2
2016-05-31T00:31:58.163Z,89.1
2016-05-31T00:32:08.288Z,89.1
2016-05-31T00:32:18.288Z,89.1
2016-05-31T00:32:28.288Z,89.2
2016-05-31T00:32:38.116Z,88.9
2016-05-31T00:32:48.244Z,89
2016-05-31T00:32:58.088Z,89
2016-05-31T00:33:08.228Z,89.1
2016-05-31T00:33:18.228Z,88.9
2016-05-31T00:33:28.213Z,88.8
2016-05-31T00:33:38.041Z,88.9
2016-05-31T00:33:48.200Z,89
2016-05-31T00:33:58.028Z,88.3
2016-05-31T00:34:08.013Z,88.4
2016-05-31T00:34:18.153Z,89
2016-05-31T00:34:28.138Z,88.6
2016-05-31T00:34:38.138Z,89.2
2016-05-31T00:34:48.125Z,88.7
2016-05-31T00:34:57.953Z,89.1
2016-05-31T00:35:07.953Z,88.7
2016-05-31T00:35:18.094Z,89
2016-05-31T00:35:27.922Z,88.9
2016-05-31T00:35:38.063Z,88.7
2016-05-31T00:35:48.065Z,88.9
2016-05-31T00:35:57.893Z,88.7
2016-05-31T00:36:08.049Z,88.2
2016-05-31T00:36:18.033Z,88.6
2016-05-31T00:36:28.018Z,89
2016-05-31T00:36:37.705Z,88.7
2016-05-31T00:36:47.989Z,88.7
2016-05-31T00:36:57.989Z,88.9
2016-05-31T00:37:07.974Z,89
2016-05-31T00:37:18.193Z,89.1
2016-05-31T00:37:28.880Z,89.3
2016-05-31T00:37:38.239Z,89.5
2016-05-31T00:37:48.273Z,89.2
2016-05-31T00:37:58.320Z,89.6
2016-05-31T00:38:08.241Z,89.5
2016-05-31T00:38:17.913Z,89.5
2016-05-31T00:38:28.070Z,89.9
2016-05-31T00:38:37.882Z,90
2016-05-31T00:38:47.870Z,90.1
2016-05-31T00:38:57.855Z,89.8
2016-05-31T00:39:07.839Z,89.7
2016-05-31T00:39:17.839Z,89.7
2016-05-31T00:39:27.824Z,89.2
2016-05-31T00:39:37.824Z,89.9
2016-05-31T00:39:47.810Z,90
2016-05-31T00:39:57.638Z,90
2016-05-31T00:40:07.779Z,89.7
2016-05-31T00:40:17.779Z,89.5
2016-05-31T00:40:27.763Z,89.2
2016-05-31T00:40:37.747Z,89.7
2016-05-31T00:40:47.734Z,89.8
2016-05-31T00:40:57.718Z,90
2016-05-31T00:41:07.718Z,89.9
2016-05-31T00:41:17.703Z,89.8
2016-05-31T00:41:27.546Z,89.8
2016-05-31T00:41:37.687Z,90.2
2016-05-31T00:41:47.674Z,89.4
2016-05-31T00:41:57.659Z,89.5
2016-05-31T00:42:07.502Z,89.6
2016-05-31T00:42:17.643Z,89.5
2016-05-31T00:42:27.627Z,89.6
2016-05-31T00:42:37.612Z,89.9
2016-05-31T00:42:47.459Z,90
2016-05-31T00:42:57.599Z,90
2016-05-31T00:43:07.584Z,90
2016-05-31T00:43:17.412Z,90.3
2016-05-31T00:43:27.568Z,90
2016-05-31T00:43:37.240Z,90.1
2016-05-31T00:43:47.540Z,90
2016-05-31T00:43:57.383Z,90
2016-05-31T00:44:07.524Z,90
2016-05-31T00:44:17.524Z,89.9
2016-05-31T00:44:27.508Z,90.1
2016-05-31T00:44:37.493Z,90.4
2016-05-31T00:44:47.479Z,90.1
2016-05-31T00:44:57.479Z,90.5
2016-05-31T00:45:07.464Z,90.4
2016-05-31T00:45:17.448Z,90.4
2016-05-31T00:45:27.135Z,90.1
2016-05-31T00:45:37.432Z,90.5
2016-05-31T00:45:47.451Z,90.4
2016-05-31T00:45:57.263Z,90.4
2016-05-31T00:46:07.404Z,90.5
2016-05-31T00:46:17.388Z,90.6
2016-05-31T00:46:27.232Z,90.2
2016-05-31T00:46:37.373Z,89.9
2016-05-31T00:46:47.360Z,90.2
2016-05-31T00:46:57.345Z,90
2016-05-31T00:47:07.329Z,89.9
2016-05-31T00:47:17.173Z,89.8
2016-05-31T00:47:27.313Z,89.7
2016-05-31T00:47:37.298Z,90.1
2016-05-31T00:47:47.301Z,90.3
2016-05-31T00:47:57.285Z,90.1
2016-05-31T00:48:07.285Z,90.2
2016-05-31T00:48:17.254Z,90.1
2016-05-31T00:48:27.098Z,90.1
2016-05-31T00:48:37.254Z,90
2016-05-31T00:48:47.223Z,90.5
2016-05-31T00:48:57.069Z,90.6
2016-05-31T00:49:07.054Z,90.4
2016-05-31T00:49:17.194Z,90.4
2016-05-31T00:49:27.194Z,90.2
2016-05-31T00:49:37.179Z,90
2016-05-31T00:49:47.163Z,90.1
2016-05-31T00:49:57.181Z,90.2
2016-05-31T00:50:06.993Z,90.4
2016-05-31T00:50:17.134Z,90.5
2016-05-31T00:50:27.118Z,90.4
2016-05-31T00:50:37.103Z,89.9
2016-05-31T00:50:47.103Z,89.7
2016-05-31T00:50:56.933Z,90
2016-05-31T00:51:07.073Z,90
2016-05-31T00:51:17.073Z,90
2016-05-31T00:51:26.745Z,90.1
2016-05-31T00:51:36.886Z,90
2016-05-31T00:51:46.886Z,89.8
2016-05-31T00:51:57.030Z,90.3
2016-05-31T00:52:06.859Z,90.1
2016-05-31T00:52:16.952Z,90.2
2016-05-31T00:52:27.015Z,90.5
2016-05-31T00:52:36.999Z,90.5
2016-05-31T00:52:46.984Z,90.5
2016-05-31T00:52:56.829Z,90.4
2016-05-31T00:53:06.798Z,90.2
2016-05-31T00:53:16.954Z,90.3
2016-05-31T00:53:27.939Z,90.5
2016-05-31T00:53:36.939Z,89.9
2016-05-31T00:53:46.751Z,89.8
2016-05-31T00:53:56.895Z,90.4
2016-05-31T00:54:06.895Z,90.3
2016-05-31T00:54:16.879Z,90.5
2016-05-31T00:54:26.707Z,90.6
2016-05-31T00:54:36.848Z,90.5
2016-05-31T00:54:46.848Z,90.8
2016-05-31T00:54:56.834Z,90.4
2016-05-31T00:55:06.819Z,90.2
2016-05-31T00:55:16.803Z,90.5
2016-05-31T00:55:26.803Z,90.7
2016-05-31T00:55:36.647Z,90.8
2016-05-31T00:55:46.616Z,90.6
2016-05-31T00:55:56.790Z,90.5
2016-05-31T00:56:06.759Z,90.3
2016-05-31T00:56:16.744Z,90.5
2016-05-31T00:56:26.744Z,90.3
2016-05-31T00:56:36.728Z,90.5
2016-05-31T00:56:46.712Z,89.9
2016-05-31T00:56:56.543Z,90.2
2016-05-31T00:57:06.700Z,90.2
2016-05-31T00:57:16.684Z,89.8
2016-05-31T00:57:26.668Z,90.1
2016-05-31T00:57:36.512Z,90.2
2016-05-31T00:57:46.653Z,90
2016-05-31T00:57:56.639Z,90.2
2016-05-31T00:58:06.483Z,90.3
2016-05-31T00:58:16.311Z,90.1
2016-05-31T00:58:26.608Z,90
2016-05-31T00:58:36.452Z,90.1
2016-05-31T00:58:46.592Z,89.9
2016-05-31T00:58:56.423Z,90.1
2016-05-31T00:59:06.564Z,90.1
2016-05-31T00:59:16.564Z,90.3
2016-05-31T00:59:26.548Z,90.5
2016-05-31T00:59:36.533Z,90.2
2016-05-31T00:59:46.517Z,90.3
2016-05-31T00:59:56.520Z,90.4
2016-05-31T01:00:06.505Z,89.9
2016-05-31T01:00:16.505Z,90.3
2016-05-31T01:00:26.473Z,90.4
2016-05-31T01:00:36.473Z,90.7
2016-05-31T01:00:46.458Z,90.6
2016-05-31T01:00:56.444Z,90.5
2016-05-31T01:01:06.444Z,90.5
2016-05-31T01:01:16.272Z,90.8
2016-05-31T01:01:26.413Z,90.7
2016-05-31T01:01:36.257Z,90.5
2016-05-31T01:01:46.397Z,90.5
2016-05-31T01:01:56.244Z,90.7
2016-05-31T01:02:06.369Z,90.8
2016-05-31T01:02:16.213Z,90.6
2016-05-31T01:02:26.369Z,90.9
2016-05-31T01:02:36.338Z,90.9
2016-05-31T01:02:46.338Z,90.9
2016-05-31T01:02:56.325Z,90.9
2016-05-31T01:03:06.153Z,91.1
2016-05-31T01:03:16.294Z,90.6
2016-05-31T01:03:26.138Z,90.6
2016-05-31T01:03:36.263Z,90.5
2016-05-31T01:03:46.278Z,90.5
2016-05-31T01:03:56.266Z,90.8
2016-05-31T01:04:06.250Z,90.7
2016-05-31T01:04:16.234Z,91.2
2016-05-31T01:04:26.062Z,91.2
2016-05-31T01:04:36.203Z,90.9
2016-05-31T01:04:46.203Z,90.7
2016-05-31T01:04:56.189Z,90.4
2016-05-31T01:05:06.049Z,90.5
2016-05-31T01:05:16.174Z,90.3
2016-05-31T01:05:26.158Z,90.3
2016-05-31T01:05:36.143Z,90.4
2016-05-31T01:05:46.143Z,90.6
2016-05-31T01:05:56.130Z,90.4
2016-05-31T01:06:06.114Z,90.3
2016-05-31T01:06:16.114Z,90.1
2016-05-31T01:06:25.802Z,90.6
2016-05-31T01:06:35.942Z,90.5
2016-05-31T01:06:46.083Z,90.7
2016-05-31T01:06:55.930Z,90.8
2016-05-31T01:07:06.070Z,90.7
2016-05-31T01:07:16.086Z,90.7
2016-05-31T01:07:27.055Z,90.8
2016-05-31T01:07:36.461Z,90.5
2016-05-31T01:07:45.867Z,90.8
2016-05-31T01:07:56.807Z,91
2016-05-31T01:08:05.697Z,91.3
2016-05-31T01:08:16.494Z,91.4
2016-05-31T01:08:26.619Z,91.3
2016-05-31T01:08:35.963Z,91.7
2016-05-31T01:08:45.947Z,91.3
2016-05-31T01:08:55.935Z,91.7
2016-05-31T01:09:05.919Z,91.5
2016-05-31T01:09:15.919Z,91.5
2016-05-31T01:09:25.763Z,91.6
2016-05-31T01:09:35.732Z,91.1
2016-05-31T01:09:45.888Z,91
2016-05-31T01:09:55.875Z,91
2016-05-31T01:10:05.547Z,90.9
2016-05-31T01:10:15.703Z,90.7
2016-05-31T01:10:25.844Z,90.5
2016-05-31T01:10:35.828Z,90.6
2016-05-31T01:10:45.844Z,90.6
2016-05-31T01:10:55.815Z,90.7
2016-05-31T01:11:05.643Z,90.5
2016-05-31T01:11:15.815Z,90.5
2016-05-31T01:11:25.784Z,90.7
2016-05-31T01:11:35.768Z,90.9
2016-05-31T01:11:45.752Z,90.8
2016-05-31T01:11:55.740Z,91.1
2016-05-31T01:12:05.740Z,91.2
2016-05-31T01:12:15.708Z,91.1
2016-05-31T01:12:25.552Z,91
2016-05-31T01:12:35.693Z,91.1
2016-05-31T01:12:45.693Z,90.9
2016-05-31T01:12:55.680Z,91
2016-05-31T01:13:05.680Z,90.7
2016-05-31T01:13:15.665Z,90.8
2016-05-31T01:13:25.493Z,90.8
2016-05-31T01:13:35.493Z,90.8
2016-05-31T01:13:45.633Z,90.7
2016-05-31T01:13:55.463Z,90.5
2016-05-31T01:14:05.479Z,91
2016-05-31T01:14:15.604Z,91.1
2016-05-31T01:14:25.588Z,91.3
2016-05-31T01:14:35.573Z,90.8
2016-05-31T01:14:45.573Z,90.6
2016-05-31T01:14:55.404Z,90.7
2016-05-31T01:15:05.545Z,90.7
2016-05-31T01:15:15.388Z,90.5
2016-05-31T01:15:25.529Z,90.5
2016-05-31T01:15:35.513Z,91.1
2016-05-31T01:15:45.341Z,91.2
2016-05-31T01:15:55.501Z,91
2016-05-31T01:16:05.485Z,90.6
2016-05-31T01:16:15.313Z,90.9
2016-05-31T01:16:25.313Z,90.8
2016-05-31T01:16:35.438Z,90.6
2016-05-31T01:16:45.282Z,90.4
2016-05-31T01:16:55.425Z,90.7
2016-05-31T01:17:05.409Z,90.8
2016-05-31T01:17:15.096Z,90.3
2016-05-31T01:17:25.393Z,90.4
2016-05-31T01:17:35.221Z,90.5
2016-05-31T01:17:45.362Z,90.3
2016-05-31T01:17:55.349Z,90.3
2016-05-31T01:18:05.193Z,90.8
2016-05-31T01:18:15.193Z,90.7
2016-05-31T01:18:25.318Z,90.7
2016-05-31T01:18:35.318Z,91.2
2016-05-31T01:18:45.318Z,91
2016-05-31T01:18:55.306Z,90.9
2016-05-31T01:19:05.290Z,91.3
2016-05-31T01:19:15.118Z,91
2016-05-31T01:19:25.259Z,90.7
2016-05-31T01:19:35.243Z,90.4
2016-05-31T01:19:45.087Z,90.8
2016-05-31T01:19:55.229Z,90.8
2016-05-31T01:20:14.651Z,90.7
2016-05-31T01:20:19.808Z,90.8
2016-05-31T01:20:29.808Z,90.9
2016-05-31T01:20:39.823Z,91
2016-05-31T01:20:49.779Z,91.1
2016-05-31T01:20:59.764Z,91.1
2016-05-31T01:21:09.764Z,91.4
2016-05-31T01:21:19.748Z,90.9
2016-05-31T01:21:29.592Z,91.3
2016-05-31T01:21:39.732Z,91.7
2016-05-31T01:21:49.720Z,91.3
2016-05-31T01:21:59.720Z,91.7
2016-05-31T01:22:09.548Z,91.1
2016-05-31T01:22:20.001Z,90.9
2016-05-31T01:22:38.548Z,90.6
2016-05-31T01:22:44.142Z,90.9
2016-05-31T01:22:54.409Z,90.7
2016-05-31T01:23:03.894Z,90.8
2016-05-31T01:23:15.128Z,91
2016-05-31T01:23:24.066Z,90.7
2016-05-31T01:23:33.847Z,90.8
2016-05-31T01:23:43.691Z,90.6
2016-05-31T01:23:53.835Z,90.6
2016-05-31T01:24:03.835Z,90.6
2016-05-31T01:24:13.663Z,90.7
2016-05-31T01:24:23.788Z,90.7
2016-05-31T01:24:33.804Z,90.8
2016-05-31T01:24:43.648Z,91.4
2016-05-31T01:24:53.759Z,90.8
2016-05-31T01:25:04.103Z,90.9
2016-05-31T01:25:13.743Z,91
2016-05-31T01:25:23.759Z,91.1
2016-05-31T01:25:33.759Z,91
2016-05-31T01:25:43.743Z,91
2016-05-31T01:25:53.731Z,90.6
2016-05-31T01:26:03.715Z,90.5
2016-05-31T01:26:13.700Z,90.8
2016-05-31T01:26:23.715Z,90.7
2016-05-31T01:26:33.684Z,91.3
2016-05-31T01:26:43.668Z,90.6
2016-05-31T01:26:53.623Z,90.8
2016-05-31T01:27:03.498Z,90.6
2016-05-31T01:27:13.608Z,90.6
2016-05-31T01:27:23.608Z,91
2016-05-31T01:27:33.592Z,91.6
2016-05-31T01:27:43.592Z,91.1
2016-05-31T01:27:53.408Z,91.1
2016-05-31T01:28:03.564Z,90.9
2016-05-31T01:28:13.533Z,91.2
2016-05-31T01:28:23.533Z,91
2016-05-31T01:28:33.517Z,90.6
2016-05-31T01:28:43.517Z,90.8
2016-05-31T01:28:53.504Z,90.8
2016-05-31T01:29:03.504Z,90.6
2016-05-31T01:29:13.473Z,90.5
2016-05-31T01:29:23.473Z,90.4
2016-05-31T01:29:33.458Z,91.2
2016-05-31T01:29:43.442Z,91.7
2016-05-31T01:29:53.289Z,91.4
2016-05-31T01:30:03.429Z,91.7
2016-05-31T01:30:13.257Z,91.6
2016-05-31T01:30:23.257Z,91.6
2016-05-31T01:30:33.398Z,91.4
2016-05-31T01:30:43.226Z,91.1
2016-05-31T01:30:53.400Z,91.2
2016-05-31T01:31:03.353Z,90.9
2016-05-31T01:31:13.353Z,90.6
2016-05-31T01:31:23.338Z,90.6
2016-05-31T01:31:33.338Z,90.6
2016-05-31T01:31:43.322Z,90.9
2016-05-31T01:31:53.309Z,90.5
2016-05-31T01:32:03.153Z,90.6
2016-05-31T01:32:12.981Z,90.6
2016-05-31T01:32:23.278Z,90.5
2016-05-31T01:32:33.278Z,90.6
2016-05-31T01:32:43.262Z,90.6
2016-05-31T01:32:53.233Z,90.6
2016-05-31T01:33:03.233Z,91.3
2016-05-31T01:33:13.233Z,91.1
2016-05-31T01:33:23.218Z,91.5
2016-05-31T01:33:33.202Z,91.7
2016-05-31T01:33:43.030Z,91.4
2016-05-31T01:33:53.190Z,90.9
2016-05-31T01:34:03.175Z,91
2016-05-31T01:34:13.159Z,91.1
2016-05-31T01:34:23.143Z,91.4
2016-05-31T01:34:33.143Z,90.9
2016-05-31T01:34:43.128Z,91.1
2016-05-31T01:34:52.974Z,91
2016-05-31T01:35:03.114Z,91
2016-05-31T01:35:13.099Z,90.9
2016-05-31T01:35:23.083Z,90.8
2016-05-31T01:35:33.083Z,90.9
2016-05-31T01:35:43.067Z,91.3
2016-05-31T01:35:52.897Z,90.9
2016-05-31T01:36:03.054Z,90.8
2016-05-31T01:36:13.038Z,90.5
2016-05-31T01:36:23.022Z,90.9
2016-05-31T01:36:32.851Z,90.6
2016-05-31T01:36:43.007Z,91.2
2016-05-31T01:36:52.995Z,91.2
2016-05-31T01:37:02.980Z,90.9
2016-05-31T01:37:12.980Z,91.1
2016-05-31T01:37:22.995Z,90.6
2016-05-31T01:37:33.089Z,90.6
2016-05-31T01:37:42.651Z,90.6
2016-05-31T01:37:52.935Z,90.7
2016-05-31T01:38:02.919Z,90.6
2016-05-31T01:38:12.763Z,90.6
2016-05-31T01:38:23.028Z,90.7
2016-05-31T01:38:32.732Z,90.6
2016-05-31T01:38:42.872Z,90.6
2016-05-31T01:38:52.875Z,90.6
2016-05-31T01:39:02.703Z,90.9
2016-05-31T01:39:12.688Z,90.9
2016-05-31T01:39:22.844Z,90.7
2016-05-31T01:39:32.656Z,90.6
2016-05-31T01:39:42.828Z,90.6
2016-05-31T01:39:52.643Z,90.9
2016-05-31T01:40:02.783Z,90.6
2016-05-31T01:40:12.627Z,90.6
2016-05-31T01:40:22.768Z,90.5
2016-05-31T01:40:32.768Z,91.1
2016-05-31T01:40:42.737Z,91
2016-05-31T01:40:52.740Z,91.2
2016-05-31T01:41:02.724Z,91
2016-05-31T01:41:12.708Z,90.6
2016-05-31T01:41:22.552Z,90.6
2016-05-31T01:41:32.693Z,90.6
2016-05-31T01:41:42.365Z,90.6
2016-05-31T01:41:52.523Z,90.6
2016-05-31T01:42:02.663Z,90.6
2016-05-31T01:42:12.648Z,90.7
2016-05-31T01:42:22.476Z,90.6
2016-05-31T01:42:32.476Z,90.5
2016-05-31T01:42:42.460Z,90.3
2016-05-31T01:42:52.448Z,90.2
2016-05-31T01:43:02.588Z,90.7
2016-05-31T01:43:12.432Z,90.8
2016-05-31T01:43:22.573Z,90.7
2016-05-31T01:43:32.416Z,90.6
2016-05-31T01:43:42.557Z,90.6
2016-05-31T01:43:52.544Z,90.6
2016-05-31T01:44:02.373Z,90.6
2016-05-31T01:44:12.529Z,90.6
2016-05-31T01:44:22.357Z,90.6
2016-05-31T01:44:32.498Z,90.2
2016-05-31T01:44:42.341Z,90.4
2016-05-31T01:44:52.469Z,90.3
2016-05-31T01:45:02.313Z,90.5
2016-05-31T01:45:12.454Z,90.3
2016-05-31T01:45:22.454Z,90.5
2016-05-31T01:45:32.438Z,90.5
2016-05-31T01:45:42.422Z,90.4
2016-05-31T01:45:52.096Z,90.3
2016-05-31T01:46:02.253Z,90.4
2016-05-31T01:46:12.393Z,90.4
2016-05-31T01:46:22.378Z,90.6
2016-05-31T01:46:32.362Z,90.6
2016-05-31T01:46:42.362Z,90.5
2016-05-31T01:46:52.193Z,90.6
2016-05-31T01:47:02.349Z,90.4
2016-05-31T01:47:12.334Z,90.8
2016-05-31T01:47:22.162Z,90.6
2016-05-31T01:47:32.318Z,90.6
2016-05-31T01:47:42.287Z,90.6
2016-05-31T01:47:52.290Z,90.6
2016-05-31T01:48:02.274Z,90.6
2016-05-31T01:48:12.102Z,90.5
2016-05-31T01:48:22.243Z,90.5
2016-05-31T01:48:32.243Z,90.6
2016-05-31T01:48:42.227Z,90.7
2016-05-31T01:48:52.230Z,90.6
2016-05-31T01:49:02.215Z,90.8
2016-05-31T01:49:12.199Z,90.6
2016-05-31T01:49:22.183Z,90.3
2016-05-31T01:49:32.168Z,90.6
2016-05-31T01:49:42.012Z,90.6
2016-05-31T01:49:52.014Z,90.6
2016-05-31T01:50:01.842Z,90.7
2016-05-31T01:50:12.123Z,90.7
2016-05-31T01:50:22.123Z,90.6
2016-05-31T01:50:31.810Z,90.9
2016-05-31T01:50:42.092Z,90.3
2016-05-31T01:50:52.095Z,90.6
2016-05-31T01:51:02.079Z,90.7
2016-05-31T01:51:11.907Z,91.1
2016-05-31T01:51:22.048Z,90.6
2016-05-31T01:51:32.063Z,90.6
2016-05-31T01:51:41.892Z,90.6
2016-05-31T01:51:52.035Z,90.6
2016-05-31T01:52:01.863Z,90.6
2016-05-31T01:52:12.020Z,90.6
2016-05-31T01:52:22.223Z,90.7
2016-05-31T01:52:32.238Z,90.6
2016-05-31T01:52:41.973Z,90.6
2016-05-31T01:52:51.818Z,90.4
2016-05-31T01:53:01.803Z,90.6
2016-05-31T01:53:13.084Z,90.6
2016-05-31T01:53:22.350Z,90.7
2016-05-31T01:53:32.193Z,91
2016-05-31T01:53:41.912Z,91
2016-05-31T01:53:51.900Z,90.9
2016-05-31T01:54:01.884Z,90.9
2016-05-31T01:54:11.884Z,90.9
2016-05-31T01:54:21.712Z,91
2016-05-31T01:54:31.853Z,91.2
2016-05-31T01:54:41.837Z,91
2016-05-31T01:54:51.824Z,91.1
2016-05-31T01:55:01.824Z,90.7
2016-05-31T01:55:11.809Z,91.1
2016-05-31T01:55:21.809Z,91.2
2016-05-31T01:55:31.637Z,91.2
2016-05-31T01:55:41.778Z,90.8
2016-05-31T01:55:51.781Z,91
2016-05-31T01:56:01.749Z,90.9
2016-05-31T01:56:11.749Z,91.2
2016-05-31T01:56:21.577Z,90.9
2016-05-31T01:56:31.718Z,91.2
2016-05-31T01:56:41.562Z,90.8
2016-05-31T01:56:51.704Z,91
2016-05-31T01:57:01.689Z,91.4
2016-05-31T01:57:11.689Z,91.4
2016-05-31T01:57:21.533Z,91.4
2016-05-31T01:57:31.658Z,91.4
2016-05-31T01:57:41.642Z,91.2
2016-05-31T01:57:51.645Z,91
2016-05-31T01:58:01.629Z,91.1
2016-05-31T01:58:11.614Z,91
2016-05-31T01:58:21.457Z,91.1
2016-05-31T01:58:31.442Z,91
2016-05-31T01:58:41.582Z,91.3
2016-05-31T01:58:51.584Z,91
2016-05-31T01:59:01.413Z,91
2016-05-31T01:59:11.553Z,91.2
2016-05-31T01:59:21.381Z,91.2
2016-05-31T01:59:31.538Z,91
2016-05-31T01:59:41.366Z,90.8
2016-05-31T01:59:51.509Z,91.1
2016-05-31T02:00:01.509Z,90.8
2016-05-31T02:00:11.478Z,90.6
2016-05-31T02:00:21.322Z,90.8
2016-05-31T02:00:31.322Z,90.7
2016-05-31T02:00:41.447Z,91.1
2016-05-31T02:00:51.450Z,91
2016-05-31T02:01:01.434Z,90.6
2016-05-31T02:01:11.434Z,90.7
2016-05-31T02:01:21.419Z,90.8
2016-05-31T02:01:31.403Z,90.9
2016-05-31T02:01:41.387Z,90.9
2016-05-31T02:01:51.375Z,91
2016-05-31T02:02:01.218Z,91
2016-05-31T02:02:11.047Z,91.3
2016-05-31T02:02:21.359Z,91
2016-05-31T02:02:31.343Z,91.2
2016-05-31T02:02:41.328Z,91.2
2016-05-31T02:02:51.345Z,90.6
2016-05-31T02:03:01.299Z,90.9
2016-05-31T02:03:11.314Z,91
2016-05-31T02:03:21.127Z,90.9
2016-05-31T02:03:31.267Z,90.9
2016-05-31T02:03:41.111Z,90.8
2016-05-31T02:03:51.252Z,90.6
2016-05-31T02:04:01.239Z,91.1
2016-05-31T02:04:11.239Z,90.8
2016-05-31T02:04:21.067Z,91
2016-05-31T02:04:31.052Z,90.9
2016-05-31T02:04:41.192Z,91.1
2016-05-31T02:04:51.020Z,91.1
2016-05-31T02:05:01.179Z,91
2016-05-31T02:05:11.163Z,90.9
2016-05-31T02:05:21.163Z,90.8
2016-05-31T02:05:31.147Z,91.1
2016-05-31T02:05:40.975Z,91
2016-05-31T02:05:51.116Z,91.1
2016-05-31T02:06:01.120Z,91.1
2016-05-31T02:06:11.104Z,91.1
2016-05-31T02:06:21.089Z,91.4
2016-05-31T02:06:31.089Z,91.4
2016-05-31T02:06:41.058Z,91.3
2016-05-31T02:06:51.058Z,91.3
2016-05-31T02:07:01.060Z,91.6
2016-05-31T02:07:10.888Z,91.6
2016-05-31T02:07:21.106Z,91.3
2016-05-31T02:07:30.872Z,91.7
2016-05-31T02:07:41.419Z,91.5
2016-05-31T02:07:51.608Z,91.5
2016-05-31T02:08:00.999Z,91.6
2016-05-31T02:08:10.843Z,91.1
2016-05-31T02:08:20.968Z,91.3
2016-05-31T02:08:31.515Z,91.2
2016-05-31T02:08:40.780Z,91.2
2016-05-31T02:08:50.921Z,90.8
2016-05-31T02:09:00.908Z,91
2016-05-31T02:09:10.908Z,91
2016-05-31T02:09:20.908Z,90.8
2016-05-31T02:09:30.877Z,91.2
2016-05-31T02:09:40.877Z,91.2
2016-05-31T02:09:50.705Z,91.1
2016-05-31T02:10:00.708Z,91
2016-05-31T02:10:10.849Z,91.1
2016-05-31T02:10:20.833Z,90.8
2016-05-31T02:10:30.818Z,91.3
2016-05-31T02:10:40.818Z,91.3
2016-05-31T02:10:50.646Z,91.5
2016-05-31T02:11:00.805Z,91.7
2016-05-31T02:11:10.774Z,91
2016-05-31T02:11:20.774Z,91.2
2016-05-31T02:11:30.758Z,91.7
2016-05-31T02:11:40.742Z,91.4
2016-05-31T02:11:50.586Z,91.4
2016-05-31T02:12:00.730Z,91.4
2016-05-31T02:12:10.714Z,91.4
2016-05-31T02:12:20.699Z,91.7
2016-05-31T02:12:30.699Z,91.1
2016-05-31T02:12:40.683Z,91
2016-05-31T02:12:50.511Z,91
2016-05-31T02:13:00.513Z,91.1
2016-05-31T02:13:10.638Z,91.4
2016-05-31T02:13:20.654Z,91.7
2016-05-31T02:13:30.622Z,91.4
2016-05-31T02:13:40.607Z,91.6
2016-05-31T02:13:50.622Z,91.2
2016-05-31T02:14:00.438Z,91.6
2016-05-31T02:14:10.594Z,91.2